sensor_id;sensor_type;location;lat;lon;timestamp;P1;durP1;ratioP1;P2;durP2;ratioP2
21697;SDS011;11010;49.548;11.926;2023-09-19T00:01:47;8.00;;;2.60;;
21697;SDS011;11010;49.548;11.926;2023-09-19T00:04:14;8.23;;;2.38;;
21697;SDS011;11010;49.548;11.926;2023-09-19T00:06:42;7.32;;;2.50;;
21697;SDS011;11010;49.548;11.926;2023-09-19T00:09:10;7.20;;;2.40;;
21697;SDS011;11010;49.548;11.926;2023-09-19T00:11:38;8.40;;;2.55;;
21697;SDS011;11010;49.548;11.926;2023-09-19T00:14:05;9.10;;;2.47;;
21697;SDS011;11010;49.548;11.926;2023-09-19T00:16:35;6.97;;;2.58;;
21697;SDS011;11010;49.548;11.926;2023-09-19T00:19:03;6.93;;;2.35;;
21697;SDS011;11010;49.548;11.926;2023-09-19T00:21:33;7.65;;;2.53;;
21697;SDS011;11010;49.548;11.926;2023-09-19T00:24:04;6.40;;;2.00;;
21697;SDS011;11010;49.548;11.926;2023-09-19T00:26:32;6.22;;;2.00;;
21697;SDS011;11010;49.548;11.926;2023-09-19T00:29:01;7.30;;;2.17;;
21697;SDS011;11010;49.548;11.926;2023-09-19T00:31:31;8.13;;;2.30;;
21697;SDS011;11010;49.548;11.926;2023-09-19T00:33:58;8.00;;;2.25;;
21697;SDS011;11010;49.548;11.926;2023-09-19T00:36:33;8.30;;;2.40;;
21697;SDS011;11010;49.548;11.926;2023-09-19T00:39:01;7.07;;;2.35;;
21697;SDS011;11010;49.548;11.926;2023-09-19T00:41:29;8.57;;;2.17;;
21697;SDS011;11010;49.548;11.926;2023-09-19T00:43:57;7.85;;;2.17;;
21697;SDS011;11010;49.548;11.926;2023-09-19T00:46:26;6.15;;;1.98;;
21697;SDS011;11010;49.548;11.926;2023-09-19T00:48:54;6.70;;;1.90;;
21697;SDS011;11010;49.548;11.926;2023-09-19T00:51:23;7.47;;;2.08;;
21697;SDS011;11010;49.548;11.926;2023-09-19T00:53:52;8.50;;;2.40;;
21697;SDS011;11010;49.548;11.926;2023-09-19T00:56:19;7.07;;;1.92;;
21697;SDS011;11010;49.548;11.926;2023-09-19T00:58:47;7.20;;;2.10;;
21697;SDS011;11010;49.548;11.926;2023-09-19T01:01:15;6.72;;;2.10;;
21697;SDS011;11010;49.548;11.926;2023-09-19T01:03:44;5.68;;;1.88;;
21697;SDS011;11010;49.548;11.926;2023-09-19T01:06:12;7.63;;;1.90;;
21697;SDS011;11010;49.548;11.926;2023-09-19T01:08:40;8.10;;;2.15;;
21697;SDS011;11010;49.548;11.926;2023-09-19T01:13:48;7.22;;;2.28;;
21697;SDS011;11010;49.548;11.926;2023-09-19T01:26:51;8.98;;;2.05;;
21697;SDS011;11010;49.548;11.926;2023-09-19T01:29:26;6.10;;;1.75;;
21697;SDS011;11010;49.548;11.926;2023-09-19T01:32:02;6.45;;;1.80;;
21697;SDS011;11010;49.548;11.926;2023-09-19T01:34:44;9.02;;;1.88;;
21697;SDS011;11010;49.548;11.926;2023-09-19T01:37:19;7.82;;;1.67;;
21697;SDS011;11010;49.548;11.926;2023-09-19T01:39:52;8.35;;;1.88;;
21697;SDS011;11010;49.548;11.926;2023-09-19T01:45:15;8.93;;;1.75;;
21697;SDS011;11010;49.548;11.926;2023-09-19T01:47:49;7.45;;;1.80;;
21697;SDS011;11010;49.548;11.926;2023-09-19T01:52:55;8.80;;;1.80;;
21697;SDS011;11010;49.548;11.926;2023-09-19T01:55:25;7.00;;;1.77;;
21697;SDS011;11010;49.548;11.926;2023-09-19T01:58:01;6.57;;;1.67;;
21697;SDS011;11010;49.548;11.926;2023-09-19T02:00:31;8.05;;;1.88;;
21697;SDS011;11010;49.548;11.926;2023-09-19T02:03:00;7.63;;;2.10;;
21697;SDS011;11010;49.548;11.926;2023-09-19T02:05:28;6.72;;;1.90;;
21697;SDS011;11010;49.548;11.926;2023-09-19T02:07:55;7.68;;;1.80;;
21697;SDS011;11010;49.548;11.926;2023-09-19T02:10:24;7.22;;;1.70;;
21697;SDS011;11010;49.548;11.926;2023-09-19T02:12:52;5.97;;;1.52;;
21697;SDS011;11010;49.548;11.926;2023-09-19T02:15:19;7.25;;;1.58;;
21697;SDS011;11010;49.548;11.926;2023-09-19T02:17:48;6.93;;;1.60;;
21697;SDS011;11010;49.548;11.926;2023-09-19T02:20:16;6.13;;;1.65;;
21697;SDS011;11010;49.548;11.926;2023-09-19T02:22:46;6.30;;;1.85;;
21697;SDS011;11010;49.548;11.926;2023-09-19T02:25:16;7.68;;;1.80;;
21697;SDS011;11010;49.548;11.926;2023-09-19T02:27:45;7.55;;;1.70;;
21697;SDS011;11010;49.548;11.926;2023-09-19T02:30:13;7.28;;;1.60;;
21697;SDS011;11010;49.548;11.926;2023-09-19T02:32:42;5.75;;;1.48;;
21697;SDS011;11010;49.548;11.926;2023-09-19T02:35:10;6.20;;;1.67;;
21697;SDS011;11010;49.548;11.926;2023-09-19T02:37:38;5.00;;;1.38;;
21697;SDS011;11010;49.548;11.926;2023-09-19T02:40:05;5.60;;;1.33;;
21697;SDS011;11010;49.548;11.926;2023-09-19T02:42:46;6.10;;;1.67;;
21697;SDS011;11010;49.548;11.926;2023-09-19T02:45:16;8.85;;;1.60;;
21697;SDS011;11010;49.548;11.926;2023-09-19T02:47:47;5.97;;;1.40;;
21697;SDS011;11010;49.548;11.926;2023-09-19T02:50:15;7.30;;;1.50;;
21697;SDS011;11010;49.548;11.926;2023-09-19T02:52:44;5.50;;;1.50;;
21697;SDS011;11010;49.548;11.926;2023-09-19T02:55:12;6.90;;;1.63;;
21697;SDS011;11010;49.548;11.926;2023-09-19T02:57:52;6.05;;;1.40;;
21697;SDS011;11010;49.548;11.926;2023-09-19T03:00:24;6.22;;;1.50;;
21697;SDS011;11010;49.548;11.926;2023-09-19T03:02:54;7.63;;;1.70;;
21697;SDS011;11010;49.548;11.926;2023-09-19T03:05:23;6.45;;;1.60;;
21697;SDS011;11010;49.548;11.926;2023-09-19T03:07:52;7.95;;;1.70;;
21697;SDS011;11010;49.548;11.926;2023-09-19T03:10:20;5.50;;;1.50;;
21697;SDS011;11010;49.548;11.926;2023-09-19T03:12:49;7.65;;;1.50;;
21697;SDS011;11010;49.548;11.926;2023-09-19T03:15:18;6.03;;;1.40;;
21697;SDS011;11010;49.548;11.926;2023-09-19T03:17:48;4.85;;;1.30;;
21697;SDS011;11010;49.548;11.926;2023-09-19T03:20:19;6.55;;;1.58;;
21697;SDS011;11010;49.548;11.926;2023-09-19T03:22:48;7.07;;;1.60;;
21697;SDS011;11010;49.548;11.926;2023-09-19T03:25:16;6.25;;;1.35;;
21697;SDS011;11010;49.548;11.926;2023-09-19T03:27:49;6.40;;;1.40;;
21697;SDS011;11010;49.548;11.926;2023-09-19T03:30:18;5.88;;;1.40;;
21697;SDS011;11010;49.548;11.926;2023-09-19T03:32:46;6.63;;;1.67;;
21697;SDS011;11010;49.548;11.926;2023-09-19T03:35:14;3.58;;;1.20;;
21697;SDS011;11010;49.548;11.926;2023-09-19T03:37:41;5.05;;;1.23;;
21697;SDS011;11010;49.548;11.926;2023-09-19T03:40:10;5.05;;;1.30;;
21697;SDS011;11010;49.548;11.926;2023-09-19T03:42:41;5.53;;;1.40;;
21697;SDS011;11010;49.548;11.926;2023-09-19T03:45:12;6.28;;;1.50;;
21697;SDS011;11010;49.548;11.926;2023-09-19T03:47:45;5.63;;;1.60;;
21697;SDS011;11010;49.548;11.926;2023-09-19T03:50:19;6.85;;;1.52;;
21697;SDS011;11010;49.548;11.926;2023-09-19T03:52:47;6.28;;;1.40;;
21697;SDS011;11010;49.548;11.926;2023-09-19T03:55:15;6.15;;;1.40;;
21697;SDS011;11010;49.548;11.926;2023-09-19T03:57:43;6.25;;;1.40;;
21697;SDS011;11010;49.548;11.926;2023-09-19T04:00:16;5.20;;;1.40;;
21697;SDS011;11010;49.548;11.926;2023-09-19T04:02:48;5.32;;;1.25;;
21697;SDS011;11010;49.548;11.926;2023-09-19T04:05:16;6.22;;;1.45;;
21697;SDS011;11010;49.548;11.926;2023-09-19T04:07:44;5.85;;;1.30;;
21697;SDS011;11010;49.548;11.926;2023-09-19T04:10:12;5.57;;;1.30;;
21697;SDS011;11010;49.548;11.926;2023-09-19T04:12:50;6.25;;;1.40;;
21697;SDS011;11010;49.548;11.926;2023-09-19T04:15:18;6.70;;;1.35;;
21697;SDS011;11010;49.548;11.926;2023-09-19T04:17:46;6.30;;;1.23;;
21697;SDS011;11010;49.548;11.926;2023-09-19T04:20:14;4.15;;;1.10;;
21697;SDS011;11010;49.548;11.926;2023-09-19T04:22:42;5.63;;;1.38;;
21697;SDS011;11010;49.548;11.926;2023-09-19T04:25:09;6.55;;;1.40;;
21697;SDS011;11010;49.548;11.926;2023-09-19T04:27:37;6.55;;;1.27;;
21697;SDS011;11010;49.548;11.926;2023-09-19T04:30:05;14.82;;;1.63;;
21697;SDS011;11010;49.548;11.926;2023-09-19T04:32:38;6.60;;;1.50;;
21697;SDS011;11010;49.548;11.926;2023-09-19T04:35:09;4.15;;;1.23;;
21697;SDS011;11010;49.548;11.926;2023-09-19T04:37:38;5.32;;;1.35;;
21697;SDS011;11010;49.548;11.926;2023-09-19T04:40:06;5.30;;;1.30;;
21697;SDS011;11010;49.548;11.926;2023-09-19T04:42:45;6.68;;;1.60;;
21697;SDS011;11010;49.548;11.926;2023-09-19T04:45:23;5.35;;;1.20;;
21697;SDS011;11010;49.548;11.926;2023-09-19T04:47:51;6.65;;;1.40;;
21697;SDS011;11010;49.548;11.926;2023-09-19T04:50:18;6.68;;;1.40;;
21697;SDS011;11010;49.548;11.926;2023-09-19T04:52:50;5.60;;;1.50;;
21697;SDS011;11010;49.548;11.926;2023-09-19T04:55:18;5.55;;;1.30;;
21697;SDS011;11010;49.548;11.926;2023-09-19T04:57:47;6.22;;;1.38;;
21697;SDS011;11010;49.548;11.926;2023-09-19T05:00:16;5.95;;;1.35;;
21697;SDS011;11010;49.548;11.926;2023-09-19T05:02:46;6.78;;;1.52;;
21697;SDS011;11010;49.548;11.926;2023-09-19T05:05:16;4.30;;;1.20;;
21697;SDS011;11010;49.548;11.926;2023-09-19T05:07:44;4.68;;;1.30;;
21697;SDS011;11010;49.548;11.926;2023-09-19T05:10:12;7.38;;;1.50;;
21697;SDS011;11010;49.548;11.926;2023-09-19T05:12:40;5.25;;;1.30;;
21697;SDS011;11010;49.548;11.926;2023-09-19T05:15:08;6.13;;;1.40;;
21697;SDS011;11010;49.548;11.926;2023-09-19T05:17:36;6.53;;;1.30;;
21697;SDS011;11010;49.548;11.926;2023-09-19T05:20:03;6.75;;;1.33;;
21697;SDS011;11010;49.548;11.926;2023-09-19T05:22:41;5.53;;;1.20;;
21697;SDS011;11010;49.548;11.926;2023-09-19T05:25:10;6.47;;;1.40;;
21697;SDS011;11010;49.548;11.926;2023-09-19T05:27:39;5.95;;;1.33;;
21697;SDS011;11010;49.548;11.926;2023-09-19T05:30:07;5.18;;;1.30;;
21697;SDS011;11010;49.548;11.926;2023-09-19T05:32:34;7.05;;;1.48;;
21697;SDS011;11010;49.548;11.926;2023-09-19T05:35:02;6.13;;;1.52;;
21697;SDS011;11010;49.548;11.926;2023-09-19T05:37:29;6.60;;;1.30;;
21697;SDS011;11010;49.548;11.926;2023-09-19T05:39:57;5.07;;;1.25;;
21697;SDS011;11010;49.548;11.926;2023-09-19T05:42:24;5.63;;;1.17;;
21697;SDS011;11010;49.548;11.926;2023-09-19T05:44:52;7.47;;;1.60;;
21697;SDS011;11010;49.548;11.926;2023-09-19T05:47:20;6.50;;;1.35;;
21697;SDS011;11010;49.548;11.926;2023-09-19T05:49:49;5.53;;;1.33;;
21697;SDS011;11010;49.548;11.926;2023-09-19T05:52:17;4.82;;;1.17;;
21697;SDS011;11010;49.548;11.926;2023-09-19T05:54:45;4.78;;;1.40;;
21697;SDS011;11010;49.548;11.926;2023-09-19T05:57:13;5.20;;;1.30;;
21697;SDS011;11010;49.548;11.926;2023-09-19T05:59:41;7.45;;;1.30;;
21697;SDS011;11010;49.548;11.926;2023-09-19T06:02:09;6.68;;;1.50;;
21697;SDS011;11010;49.548;11.926;2023-09-19T06:04:39;5.10;;;1.30;;
21697;SDS011;11010;49.548;11.926;2023-09-19T06:07:07;5.82;;;1.33;;
21697;SDS011;11010;49.548;11.926;2023-09-19T06:09:34;6.32;;;1.40;;
21697;SDS011;11010;49.548;11.926;2023-09-19T06:12:02;7.63;;;1.33;;
21697;SDS011;11010;49.548;11.926;2023-09-19T06:14:30;5.60;;;1.30;;
21697;SDS011;11010;49.548;11.926;2023-09-19T06:16:58;5.57;;;1.30;;
21697;SDS011;11010;49.548;11.926;2023-09-19T06:19:27;5.38;;;1.40;;
21697;SDS011;11010;49.548;11.926;2023-09-19T06:21:54;7.35;;;1.60;;
21697;SDS011;11010;49.548;11.926;2023-09-19T06:24:22;4.70;;;1.20;;
21697;SDS011;11010;49.548;11.926;2023-09-19T06:26:49;5.13;;;1.38;;
21697;SDS011;11010;49.548;11.926;2023-09-19T06:29:18;6.95;;;1.40;;
21697;SDS011;11010;49.548;11.926;2023-09-19T06:31:47;7.30;;;1.40;;
21697;SDS011;11010;49.548;11.926;2023-09-19T06:34:14;6.15;;;1.40;;
21697;SDS011;11010;49.548;11.926;2023-09-19T06:36:42;6.63;;;1.30;;
21697;SDS011;11010;49.548;11.926;2023-09-19T06:39:11;5.43;;;1.30;;
21697;SDS011;11010;49.548;11.926;2023-09-19T06:41:39;6.70;;;1.58;;
21697;SDS011;11010;49.548;11.926;2023-09-19T06:44:09;5.80;;;1.40;;
21697;SDS011;11010;49.548;11.926;2023-09-19T06:46:37;5.10;;;1.23;;
21697;SDS011;11010;49.548;11.926;2023-09-19T06:49:06;5.72;;;1.20;;
21697;SDS011;11010;49.548;11.926;2023-09-19T06:51:34;5.70;;;1.35;;
21697;SDS011;11010;49.548;11.926;2023-09-19T06:54:02;4.35;;;1.17;;
21697;SDS011;11010;49.548;11.926;2023-09-19T06:56:31;6.00;;;1.35;;
21697;SDS011;11010;49.548;11.926;2023-09-19T06:58:59;6.25;;;1.30;;
21697;SDS011;11010;49.548;11.926;2023-09-19T07:01:29;6.20;;;1.30;;
21697;SDS011;11010;49.548;11.926;2023-09-19T07:03:58;5.40;;;1.33;;
21697;SDS011;11010;49.548;11.926;2023-09-19T07:06:26;6.38;;;1.30;;
21697;SDS011;11010;49.548;11.926;2023-09-19T07:08:53;7.80;;;1.20;;
21697;SDS011;11010;49.548;11.926;2023-09-19T07:11:22;5.32;;;1.17;;
21697;SDS011;11010;49.548;11.926;2023-09-19T07:13:49;6.07;;;1.30;;
21697;SDS011;11010;49.548;11.926;2023-09-19T07:16:17;6.03;;;1.30;;
21697;SDS011;11010;49.548;11.926;2023-09-19T07:18:56;7.35;;;1.40;;
21697;SDS011;11010;49.548;11.926;2023-09-19T07:21:23;4.60;;;1.20;;
21697;SDS011;11010;49.548;11.926;2023-09-19T07:23:52;6.18;;;1.38;;
21697;SDS011;11010;49.548;11.926;2023-09-19T07:26:19;6.32;;;1.40;;
21697;SDS011;11010;49.548;11.926;2023-09-19T07:28:47;5.10;;;1.20;;
21697;SDS011;11010;49.548;11.926;2023-09-19T07:31:14;4.40;;;1.13;;
21697;SDS011;11010;49.548;11.926;2023-09-19T07:33:43;5.05;;;1.10;;
21697;SDS011;11010;49.548;11.926;2023-09-19T07:36:11;4.15;;;1.10;;
21697;SDS011;11010;49.548;11.926;2023-09-19T07:38:42;5.13;;;1.45;;
21697;SDS011;11010;49.548;11.926;2023-09-19T07:41:10;5.13;;;1.48;;
21697;SDS011;11010;49.548;11.926;2023-09-19T07:43:37;5.45;;;1.20;;
21697;SDS011;11010;49.548;11.926;2023-09-19T07:46:07;6.55;;;1.45;;
21697;SDS011;11010;49.548;11.926;2023-09-19T07:48:36;4.20;;;1.00;;
21697;SDS011;11010;49.548;11.926;2023-09-19T07:51:04;6.80;;;1.35;;
21697;SDS011;11010;49.548;11.926;2023-09-19T07:53:33;5.00;;;1.20;;
21697;SDS011;11010;49.548;11.926;2023-09-19T07:56:08;3.63;;;1.05;;
21697;SDS011;11010;49.548;11.926;2023-09-19T07:58:39;4.68;;;1.38;;
21697;SDS011;11010;49.548;11.926;2023-09-19T08:01:10;6.00;;;1.25;;
21697;SDS011;11010;49.548;11.926;2023-09-19T08:03:40;4.97;;;1.20;;
21697;SDS011;11010;49.548;11.926;2023-09-19T08:06:09;6.35;;;1.40;;
21697;SDS011;11010;49.548;11.926;2023-09-19T08:08:37;5.60;;;1.10;;
21697;SDS011;11010;49.548;11.926;2023-09-19T08:11:05;5.35;;;1.40;;
21697;SDS011;11010;49.548;11.926;2023-09-19T08:13:39;5.05;;;1.13;;
21697;SDS011;11010;49.548;11.926;2023-09-19T08:16:10;4.68;;;1.10;;
21697;SDS011;11010;49.548;11.926;2023-09-19T08:18:37;7.57;;;1.40;;
21697;SDS011;11010;49.548;11.926;2023-09-19T08:21:08;6.45;;;1.58;;
21697;SDS011;11010;49.548;11.926;2023-09-19T08:23:37;6.60;;;1.38;;
21697;SDS011;11010;49.548;11.926;2023-09-19T08:26:06;5.50;;;1.25;;
21697;SDS011;11010;49.548;11.926;2023-09-19T08:28:35;6.72;;;1.38;;
21697;SDS011;11010;49.548;11.926;2023-09-19T08:31:03;5.25;;;1.30;;
21697;SDS011;11010;49.548;11.926;2023-09-19T08:33:34;5.65;;;1.27;;
21697;SDS011;11010;49.548;11.926;2023-09-19T08:36:02;5.30;;;1.20;;
21697;SDS011;11010;49.548;11.926;2023-09-19T08:38:31;5.45;;;1.30;;
21697;SDS011;11010;49.548;11.926;2023-09-19T08:41:00;4.45;;;1.10;;
21697;SDS011;11010;49.548;11.926;2023-09-19T08:43:27;6.28;;;1.30;;
21697;SDS011;11010;49.548;11.926;2023-09-19T08:46:03;5.40;;;1.20;;
21697;SDS011;11010;49.548;11.926;2023-09-19T08:48:31;5.85;;;1.48;;
21697;SDS011;11010;49.548;11.926;2023-09-19T08:51:10;5.80;;;1.42;;
21697;SDS011;11010;49.548;11.926;2023-09-19T08:53:50;5.68;;;1.40;;
21697;SDS011;11010;49.548;11.926;2023-09-19T08:56:19;5.38;;;1.17;;
21697;SDS011;11010;49.548;11.926;2023-09-19T08:58:59;4.57;;;1.17;;
21697;SDS011;11010;49.548;11.926;2023-09-19T09:01:28;4.50;;;1.10;;
21697;SDS011;11010;49.548;11.926;2023-09-19T09:03:56;4.95;;;1.20;;
21697;SDS011;11010;49.548;11.926;2023-09-19T09:06:24;6.30;;;1.42;;
21697;SDS011;11010;49.548;11.926;2023-09-19T09:08:52;4.57;;;1.02;;
21697;SDS011;11010;49.548;11.926;2023-09-19T09:11:20;6.30;;;1.38;;
21697;SDS011;11010;49.548;11.926;2023-09-19T09:13:49;6.43;;;1.58;;
21697;SDS011;11010;49.548;11.926;2023-09-19T09:16:17;5.18;;;1.10;;
21697;SDS011;11010;49.548;11.926;2023-09-19T09:18:46;5.15;;;1.30;;
21697;SDS011;11010;49.548;11.926;2023-09-19T09:21:20;6.45;;;1.38;;
21697;SDS011;11010;49.548;11.926;2023-09-19T09:23:49;7.82;;;1.40;;
21697;SDS011;11010;49.548;11.926;2023-09-19T09:26:24;4.85;;;1.17;;
21697;SDS011;11010;49.548;11.926;2023-09-19T09:29:04;5.95;;;1.13;;
21697;SDS011;11010;49.548;11.926;2023-09-19T09:31:32;5.00;;;1.10;;
21697;SDS011;11010;49.548;11.926;2023-09-19T09:34:00;3.95;;;1.02;;
21697;SDS011;11010;49.548;11.926;2023-09-19T09:36:38;5.18;;;1.15;;
21697;SDS011;11010;49.548;11.926;2023-09-19T09:39:08;5.60;;;1.23;;
21697;SDS011;11010;49.548;11.926;2023-09-19T09:41:45;3.85;;;1.02;;
21697;SDS011;11010;49.548;11.926;2023-09-19T09:44:17;3.03;;;0.80;;
21697;SDS011;11010;49.548;11.926;2023-09-19T09:46:46;4.82;;;1.10;;
21697;SDS011;11010;49.548;11.926;2023-09-19T09:49:24;4.35;;;1.10;;
21697;SDS011;11010;49.548;11.926;2023-09-19T09:54:27;6.45;;;1.40;;
21697;SDS011;11010;49.548;11.926;2023-09-19T09:57:01;5.20;;;1.23;;
21697;SDS011;11010;49.548;11.926;2023-09-19T10:02:34;3.90;;;1.05;;
21697;SDS011;11010;49.548;11.926;2023-09-19T10:05:11;5.95;;;1.30;;
21697;SDS011;11010;49.548;11.926;2023-09-19T10:07:54;5.20;;;1.20;;
21697;SDS011;11010;49.548;11.926;2023-09-19T10:10:37;5.88;;;1.30;;
21697;SDS011;11010;49.548;11.926;2023-09-19T10:13:09;5.57;;;1.08;;
21697;SDS011;11010;49.548;11.926;2023-09-19T10:15:47;5.43;;;1.30;;
21697;SDS011;11010;49.548;11.926;2023-09-19T10:18:22;5.78;;;1.30;;
21697;SDS011;11010;49.548;11.926;2023-09-19T10:20:50;6.13;;;1.30;;
21697;SDS011;11010;49.548;11.926;2023-09-19T10:23:18;7.78;;;1.50;;
21697;SDS011;11010;49.548;11.926;2023-09-19T10:25:51;5.22;;;1.40;;
21697;SDS011;11010;49.548;11.926;2023-09-19T10:28:19;6.50;;;1.50;;
21697;SDS011;11010;49.548;11.926;2023-09-19T10:30:50;7.00;;;1.38;;
21697;SDS011;11010;49.548;11.926;2023-09-19T10:33:20;5.90;;;1.20;;
21697;SDS011;11010;49.548;11.926;2023-09-19T10:35:50;4.45;;;1.13;;
21697;SDS011;11010;49.548;11.926;2023-09-19T10:38:18;5.68;;;1.10;;
21697;SDS011;11010;49.548;11.926;2023-09-19T10:40:54;5.57;;;1.20;;
21697;SDS011;11010;49.548;11.926;2023-09-19T10:43:25;4.78;;;1.05;;
21697;SDS011;11010;49.548;11.926;2023-09-19T10:45:53;4.82;;;1.00;;
21697;SDS011;11010;49.548;11.926;2023-09-19T10:48:24;6.03;;;1.30;;
21697;SDS011;11010;49.548;11.926;2023-09-19T10:51:02;6.38;;;1.25;;
21697;SDS011;11010;49.548;11.926;2023-09-19T10:53:53;7.63;;;1.30;;
21697;SDS011;11010;49.548;11.926;2023-09-19T10:56:26;6.70;;;1.50;;
21697;SDS011;11010;49.548;11.926;2023-09-19T11:01:53;4.22;;;1.10;;
21697;SDS011;11010;49.548;11.926;2023-09-19T11:12:47;4.70;;;1.10;;
21697;SDS011;11010;49.548;11.926;2023-09-19T11:18:00;6.18;;;1.63;;
21697;SDS011;11010;49.548;11.926;2023-09-19T11:20:27;5.70;;;1.30;;
21697;SDS011;11010;49.548;11.926;2023-09-19T11:23:18;5.80;;;1.05;;
21697;SDS011;11010;49.548;11.926;2023-09-19T11:25:49;6.07;;;1.20;;
21697;SDS011;11010;49.548;11.926;2023-09-19T11:30:49;5.25;;;1.15;;
21697;SDS011;11010;49.548;11.926;2023-09-19T11:43:52;6.82;;;1.67;;
21697;SDS011;11010;49.548;11.926;2023-09-19T11:46:26;5.13;;;1.35;;
21697;SDS011;11010;49.548;11.926;2023-09-19T11:48:55;5.35;;;1.20;;
21697;SDS011;11010;49.548;11.926;2023-09-19T11:51:40;5.80;;;1.30;;
21697;SDS011;11010;49.548;11.926;2023-09-19T11:54:10;5.45;;;1.38;;
21697;SDS011;11010;49.548;11.926;2023-09-19T11:56:51;5.50;;;1.20;;
21697;SDS011;11010;49.548;11.926;2023-09-19T11:59:23;5.28;;;1.40;;
21697;SDS011;11010;49.548;11.926;2023-09-19T12:01:51;5.28;;;1.38;;
21697;SDS011;11010;49.548;11.926;2023-09-19T12:06:59;6.22;;;1.42;;
21697;SDS011;11010;49.548;11.926;2023-09-19T12:09:27;6.35;;;1.33;;
21697;SDS011;11010;49.548;11.926;2023-09-19T12:11:54;5.50;;;1.20;;
21697;SDS011;11010;49.548;11.926;2023-09-19T12:14:22;5.10;;;1.30;;
21697;SDS011;11010;49.548;11.926;2023-09-19T12:16:55;5.25;;;1.23;;
21697;SDS011;11010;49.548;11.926;2023-09-19T12:19:23;4.93;;;1.30;;
21697;SDS011;11010;49.548;11.926;2023-09-19T12:22:00;5.22;;;1.10;;
21697;SDS011;11010;49.548;11.926;2023-09-19T12:24:32;5.75;;;1.30;;
21697;SDS011;11010;49.548;11.926;2023-09-19T12:27:02;5.75;;;1.40;;
21697;SDS011;11010;49.548;11.926;2023-09-19T12:33:35;5.20;;;1.40;;
21697;SDS011;11010;49.548;11.926;2023-09-19T12:36:19;5.25;;;1.35;;
21697;SDS011;11010;49.548;11.926;2023-09-19T12:38:51;7.07;;;1.50;;
21697;SDS011;11010;49.548;11.926;2023-09-19T12:41:19;6.97;;;1.33;;
21697;SDS011;11010;49.548;11.926;2023-09-19T12:43:48;5.30;;;1.20;;
21697;SDS011;11010;49.548;11.926;2023-09-19T12:46:19;5.60;;;1.30;;
21697;SDS011;11010;49.548;11.926;2023-09-19T12:51:48;5.40;;;1.15;;
21697;SDS011;11010;49.548;11.926;2023-09-19T12:54:16;3.60;;;0.90;;
21697;SDS011;11010;49.548;11.926;2023-09-19T12:56:44;5.78;;;1.20;;
21697;SDS011;11010;49.548;11.926;2023-09-19T12:59:12;5.13;;;1.10;;
21697;SDS011;11010;49.548;11.926;2023-09-19T13:01:41;5.82;;;1.20;;
21697;SDS011;11010;49.548;11.926;2023-09-19T13:04:13;6.30;;;1.30;;
21697;SDS011;11010;49.548;11.926;2023-09-19T13:06:52;6.18;;;1.25;;
21697;SDS011;11010;49.548;11.926;2023-09-19T13:09:22;5.90;;;1.20;;
21697;SDS011;11010;49.548;11.926;2023-09-19T13:12:02;5.05;;;1.10;;
21697;SDS011;11010;49.548;11.926;2023-09-19T13:14:30;5.35;;;1.23;;
21697;SDS011;11010;49.548;11.926;2023-09-19T13:17:00;4.18;;;1.10;;
21697;SDS011;11010;49.548;11.926;2023-09-19T13:19:36;5.60;;;1.30;;
21697;SDS011;11010;49.548;11.926;2023-09-19T13:24:52;5.10;;;1.08;;
21697;SDS011;11010;49.548;11.926;2023-09-19T13:27:20;7.80;;;1.20;;
21697;SDS011;11010;49.548;11.926;2023-09-19T13:29:48;4.72;;;1.10;;
21697;SDS011;11010;49.548;11.926;2023-09-19T13:32:16;5.20;;;1.17;;
21697;SDS011;11010;49.548;11.926;2023-09-19T13:34:43;4.82;;;1.17;;
21697;SDS011;11010;49.548;11.926;2023-09-19T13:37:11;6.07;;;1.33;;
21697;SDS011;11010;49.548;11.926;2023-09-19T13:39:39;3.78;;;1.20;;
21697;SDS011;11010;49.548;11.926;2023-09-19T13:42:14;7.50;;;1.73;;
21697;SDS011;11010;49.548;11.926;2023-09-19T13:44:42;6.75;;;1.30;;
21697;SDS011;11010;49.548;11.926;2023-09-19T13:47:10;4.75;;;1.20;;
21697;SDS011;11010;49.548;11.926;2023-09-19T13:49:40;5.22;;;0.93;;
21697;SDS011;11010;49.548;11.926;2023-09-19T13:52:09;7.05;;;1.20;;
21697;SDS011;11010;49.548;11.926;2023-09-19T13:54:36;5.68;;;1.20;;
21697;SDS011;11010;49.548;11.926;2023-09-19T13:57:04;4.32;;;1.20;;
21697;SDS011;11010;49.548;11.926;2023-09-19T13:59:34;5.30;;;1.08;;
21697;SDS011;11010;49.548;11.926;2023-09-19T14:02:02;6.18;;;1.20;;
21697;SDS011;11010;49.548;11.926;2023-09-19T14:04:32;5.97;;;1.20;;
21697;SDS011;11010;49.548;11.926;2023-09-19T14:07:01;4.60;;;1.10;;
21697;SDS011;11010;49.548;11.926;2023-09-19T14:09:28;3.05;;;0.77;;
21697;SDS011;11010;49.548;11.926;2023-09-19T14:11:56;3.78;;;0.90;;
21697;SDS011;11010;49.548;11.926;2023-09-19T14:14:24;8.05;;;1.50;;
21697;SDS011;11010;49.548;11.926;2023-09-19T14:16:51;4.25;;;1.10;;
21697;SDS011;11010;49.548;11.926;2023-09-19T14:19:19;5.00;;;1.10;;
21697;SDS011;11010;49.548;11.926;2023-09-19T14:21:47;4.68;;;1.10;;
21697;SDS011;11010;49.548;11.926;2023-09-19T14:24:18;3.55;;;0.95;;
21697;SDS011;11010;49.548;11.926;2023-09-19T14:26:45;5.25;;;1.20;;
21697;SDS011;11010;49.548;11.926;2023-09-19T14:29:14;5.13;;;1.23;;
21697;SDS011;11010;49.548;11.926;2023-09-19T14:31:41;4.82;;;1.17;;
21697;SDS011;11010;49.548;11.926;2023-09-19T14:34:09;4.13;;;0.93;;
21697;SDS011;11010;49.548;11.926;2023-09-19T14:36:37;5.38;;;1.33;;
21697;SDS011;11010;49.548;11.926;2023-09-19T14:39:05;3.97;;;1.00;;
21697;SDS011;11010;49.548;11.926;2023-09-19T14:41:33;4.85;;;1.08;;
21697;SDS011;11010;49.548;11.926;2023-09-19T14:44:02;5.63;;;1.10;;
21697;SDS011;11010;49.548;11.926;2023-09-19T14:46:30;4.70;;;1.33;;
21697;SDS011;11010;49.548;11.926;2023-09-19T14:48:58;7.53;;;1.00;;
21697;SDS011;11010;49.548;11.926;2023-09-19T14:51:28;3.95;;;1.38;;
21697;SDS011;11010;49.548;11.926;2023-09-19T14:53:56;5.13;;;1.10;;
21697;SDS011;11010;49.548;11.926;2023-09-19T14:56:24;5.10;;;1.10;;
21697;SDS011;11010;49.548;11.926;2023-09-19T14:58:52;8.27;;;1.30;;
21697;SDS011;11010;49.548;11.926;2023-09-19T15:01:20;7.00;;;1.40;;
21697;SDS011;11010;49.548;11.926;2023-09-19T15:03:49;6.55;;;1.20;;
21697;SDS011;11010;49.548;11.926;2023-09-19T15:06:17;7.63;;;1.25;;
21697;SDS011;11010;49.548;11.926;2023-09-19T15:08:46;4.13;;;0.90;;
21697;SDS011;11010;49.548;11.926;2023-09-19T15:11:15;5.10;;;1.13;;
21697;SDS011;11010;49.548;11.926;2023-09-19T15:13:47;3.38;;;0.93;;
21697;SDS011;11010;49.548;11.926;2023-09-19T15:16:15;6.70;;;1.55;;
21697;SDS011;11010;49.548;11.926;2023-09-19T15:18:44;5.72;;;1.20;;
21697;SDS011;11010;49.548;11.926;2023-09-19T15:21:14;4.85;;;1.10;;
21697;SDS011;11010;49.548;11.926;2023-09-19T15:23:42;5.25;;;1.35;;
21697;SDS011;11010;49.548;11.926;2023-09-19T15:26:11;5.57;;;1.25;;
21697;SDS011;11010;49.548;11.926;2023-09-19T15:28:40;5.93;;;1.20;;
21697;SDS011;11010;49.548;11.926;2023-09-19T15:31:08;5.93;;;1.25;;
21697;SDS011;11010;49.548;11.926;2023-09-19T15:33:36;4.82;;;1.02;;
21697;SDS011;11010;49.548;11.926;2023-09-19T15:36:08;4.97;;;1.20;;
21697;SDS011;11010;49.548;11.926;2023-09-19T15:41:26;6.25;;;1.30;;
21697;SDS011;11010;49.548;11.926;2023-09-19T15:43:54;6.47;;;1.27;;
21697;SDS011;11010;49.548;11.926;2023-09-19T15:46:22;6.32;;;1.00;;
21697;SDS011;11010;49.548;11.926;2023-09-19T15:48:50;5.03;;;1.10;;
21697;SDS011;11010;49.548;11.926;2023-09-19T15:51:17;5.82;;;1.17;;
21697;SDS011;11010;49.548;11.926;2023-09-19T15:53:46;5.55;;;1.23;;
21697;SDS011;11010;49.548;11.926;2023-09-19T15:56:15;5.57;;;1.20;;